Weather reports worldwide

Advertisment
Chatillon/Seine, France (7276): temperature & dewpoint: 16.09.2018 23:00:00 - 22.09.2018 23:00:00 (CEST)Chatillon/Seine, France (7276): wind speed & gusts: 16.09.2018 23:00:00 - 22.09.2018 23:00:00 (CEST)Chatillon/Seine, France (7276): wind direction: 16.09.2018 23:00:00 - 22.09.2018 23:00:00 (CEST)Chatillon/Seine, France (7276): sunshine duration: 16.09.2018 23:00:00 - 22.09.2018 23:00:00 (CEST)Chatillon/Seine, France (7276): precipitation: 16.09.2018 23:00:00 - 22.09.2018 23:00:00 (CEST)
Date & Time tt [°C] td [°C] ff [km/h] ff [kn] fx [km/h] fx [kn] dd sd [min] rr [mm]
22.09.2018 23:00:00 17,5 7,2 18 10 29 16 SSW 0 0,0
22.09.2018 22:00:00 16,5 6,9 13 7 18 10 S 0 0,0
22.09.2018 21:00:00 16,5 7,7 2 1 13 7 SE 0 0,0
22.09.2018 20:00:00 17,1 6,9 9 5 16 9 S 0 -
22.09.2018 19:00:00 17,8 6,6 11 6 22 12 SW 0 0,0
22.09.2018 18:00:00 18,4 6,6 9 5 22 12 SSW 0 0,0
22.09.2018 17:00:00 19,4 6,5 11 6 28 15 S 0 0,0
22.09.2018 16:00:00 19,4 6,5 15 8 26 14 S 6 0,0
22.09.2018 15:00:00 19,0 3,6 13 7 29 16 SSW 48 0,0
22.09.2018 14:00:00 18,6 4,7 15 8 26 14 SW 42 -
22.09.2018 13:00:00 17,8 6,0 11 6 21 11 SW 60 0,0
22.09.2018 12:00:00 16,6 7,2 5 3 16 9 SSW 42 0,0
22.09.2018 11:00:00 15,0 7,3 8 4 13 7 SSW 30 0,0
22.09.2018 10:00:00 11,9 8,6 5 3 9 5 SW 36 0,0
22.09.2018 09:00:00 9,1 8,6 0 0 5 3 N 54 0,0
22.09.2018 08:00:00 6,0 5,1 4 2 5 3 SE 0 -
22.09.2018 07:00:00 6,6 5,9 4 2 13 7 S 0 0,0
22.09.2018 06:00:00 6,8 5,7 4 2 11 6 SSE 0 0,0
22.09.2018 05:00:00 8,0 6,6 9 5 13 7 SSW 0 0,0
22.09.2018 04:00:00 8,1 6,7 8 4 9 5 S 0 0,0
22.09.2018 03:00:00 8,7 6,8 4 2 5 3 SE 0 0,0
22.09.2018 02:00:00 10,2 7,4 8 4 21 11 WSW 0 -
22.09.2018 01:00:00 11,0 8,0 11 6 21 11 WSW 0 0,0
22.09.2018 00:00:00 11,4 8,4 8 4 21 11 WSW 0 0,0
21.09.2018 23:00:00 11,3 8,9 13 7 18 10 SW 0 0,0
21.09.2018 22:00:00 11,4 9,3 13 7 16 9 SSW 0 0,0
21.09.2018 21:00:00 11,7 9,1 9 5 15 8 SSW 0 0,0
21.09.2018 20:00:00 12,8 9,2 8 4 16 9 SSW 0 -
21.09.2018 19:00:00 14,6 8,8 9 5 26 14 W 0 0,0
21.09.2018 18:00:00 15,4 9,5 11 6 34 18 W 0 0,0
21.09.2018 17:00:00 15,4 9,3 16 9 37 20 W 36 0,0
21.09.2018 16:00:00 14,5 12,0 13 7 28 15 W 0 0,0
21.09.2018 15:00:00 12,9 11,3 8 4 28 15 W 0 3,0
21.09.2018 14:00:00 12,1 10,7 15 8 68 37 WNW 0 -
21.09.2018 13:00:00 18,9 15,2 29 16 48 26 SW 0 0,0
21.09.2018 12:00:00 19,7 13,4 29 16 50 27 SW 0 0,0
21.09.2018 11:00:00 20,0 13,0 28 15 46 25 SW 0 0,0
21.09.2018 10:00:00 19,3 12,6 21 11 41 22 SW 0 0,0
21.09.2018 09:00:00 19,0 12,7 22 12 35 19 SSW 0 0,0
21.09.2018 08:00:00 18,9 13,1 16 9 28 15 SW 0 -
21.09.2018 07:00:00 19,1 13,3 15 8 24 13 SW 0 0,0
21.09.2018 06:00:00 16,6 11,9 4 2 11 6 WSW 0 0,0
21.09.2018 05:00:00 16,9 11,4 4 2 13 7 WNW 0 0,0
21.09.2018 04:00:00 17,1 10,5 5 3 13 7 SSE 0 0,0
21.09.2018 03:00:00 19,0 11,3 8 4 22 12 SW 0 0,0
21.09.2018 02:00:00 18,8 11,4 15 8 22 12 S 0 -
21.09.2018 01:00:00 17,5 10,6 11 6 15 8 S 0 0,0
21.09.2018 00:00:00 17,3 10,4 8 4 13 7 S 0 0,0
20.09.2018 23:00:00 17,3 10,7 4 2 16 9 S 0 0,0
20.09.2018 22:00:00 17,9 10,0 15 8 18 10 SSE 0 0,0
20.09.2018 21:00:00 20,1 9,9 9 5 15 8 S 0 0,0
20.09.2018 20:00:00 22,7 9,8 9 5 21 11 SSW 12 -
20.09.2018 19:00:00 26,3 10,8 11 6 18 10 SW 30 0,0
20.09.2018 18:00:00 28,1 13,6 5 3 22 12 SW 54 0,0
20.09.2018 17:00:00 28,5 13,6 11 6 22 12 SSW 60 0,0
20.09.2018 16:00:00 27,9 13,4 9 5 29 16 W 60 0,0
20.09.2018 15:00:00 27,5 13,8 13 7 26 14 SSW 60 0,0
20.09.2018 14:00:00 27,1 13,8 11 6 24 13 SSW 60 -
20.09.2018 13:00:00 24,7 13,6 8 4 22 12 WNW 60 0,0
20.09.2018 12:00:00 23,3 13,5 9 5 18 10 WNW 60 0,0
20.09.2018 11:00:00 22,3 14,4 13 7 21 11 S 60 0,0
20.09.2018 10:00:00 18,7 14,0 8 4 9 5 SSW 60 0,0
20.09.2018 09:00:00 13,5 12,9 0 0 8 4 N 60 0,0
20.09.2018 08:00:00 11,1 10,5 5 3 8 4 S 12 -
20.09.2018 07:00:00 10,7 9,9 5 3 9 5 S 0 0,0
20.09.2018 06:00:00 10,7 9,8 8 4 9 5 S 0 0,0
20.09.2018 05:00:00 11,5 10,7 0 0 5 3 N 0 0,0
20.09.2018 04:00:00 11,5 10,2 2 1 5 3 SSE 0 0,0
20.09.2018 03:00:00 12,9 11,8 0 0 9 5 N 0 0,0
20.09.2018 02:00:00 12,8 10,7 4 2 8 4 S 0 -
20.09.2018 01:00:00 14,7 12,2 5 3 11 6 S 0 0,0
20.09.2018 00:00:00 15,4 12,5 11 6 13 7 SSW 0 0,0
19.09.2018 23:00:00 16,9 12,4 5 3 9 5 SW 0 0,0
19.09.2018 22:00:00 19,3 12,8 8 4 11 6 SW 0 0,0
19.09.2018 21:00:00 21,8 12,4 8 4 13 7 SSW 0 0,0
19.09.2018 20:00:00 24,4 12,7 8 4 22 12 W 12 -
19.09.2018 19:00:00 27,0 13,7 8 4 26 14 W 60 0,0
19.09.2018 18:00:00 28,1 14,0 9 5 28 15 W 48 0,0
19.09.2018 17:00:00 28,1 14,7 15 8 28 15 WSW 48 0,0
19.09.2018 16:00:00 28,1 14,7 13 7 29 16 SW 24 0,0
19.09.2018 15:00:00 28,7 14,9 13 7 29 16 W 36 0,0
19.09.2018 14:00:00 27,7 15,0 13 7 29 16 WSW 48 -
19.09.2018 13:00:00 27,4 15,1 13 7 21 11 SSW 60 0,0
19.09.2018 12:00:00 25,0 15,0 9 5 21 11 SW 60 0,0
19.09.2018 11:00:00 23,1 15,4 5 3 15 8 WSW 54 0,0
19.09.2018 10:00:00 20,3 14,6 5 3 9 5 WSW 54 0,0
19.09.2018 09:00:00 17,6 14,3 8 4 9 5 SSE 54 0,0
19.09.2018 08:00:00 14,1 12,1 2 1 9 5 S 0 -
19.09.2018 07:00:00 14,3 12,2 8 4 9 5 SSE 0 0,0
19.09.2018 06:00:00 15,3 12,6 4 2 9 5 S 0 0,0
19.09.2018 05:00:00 15,7 13,2 9 5 11 6 S 0 0,0
19.09.2018 04:00:00 15,0 12,0 0 0 8 4 N 0 0,0
19.09.2018 03:00:00 16,1 12,3 8 4 9 5 SE 0 0,0
19.09.2018 02:00:00 17,2 13,3 2 1 8 4 SSW 0 -
19.09.2018 01:00:00 18,4 13,0 5 3 15 8 S 0 0,0
19.09.2018 00:00:00 18,9 13,3 9 5 15 8 S 0 0,0
18.09.2018 23:00:00 18,6 13,5 5 3 8 4 SW 0 0,0
18.09.2018 22:00:00 20,1 13,3 4 2 13 7 SE 0 0,0
18.09.2018 21:00:00 20,5 13,7 8 4 13 7 SSE 0 0,0
18.09.2018 20:00:00 23,2 13,7 4 2 15 8 NE 0 -
18.09.2018 19:00:00 26,0 12,5 11 6 22 12 NNE 0 0,0
18.09.2018 18:00:00 27,2 12,8 13 7 26 14 NW 12 0,0
18.09.2018 17:00:00 29,2 13,0 13 7 35 19 WNW 48 0,0
18.09.2018 16:00:00 30,2 13,5 9 5 28 15 WNW 48 0,0
18.09.2018 15:00:00 30,9 14,1 11 6 28 15 SSW 54 0,0
18.09.2018 14:00:00 29,1 13,7 13 7 28 15 SSW 54 -
18.09.2018 13:00:00 27,5 13,8 13 7 34 18 SW 60 0,0
18.09.2018 12:00:00 26,7 13,1 21 11 34 18 S 48 0,0
18.09.2018 11:00:00 24,2 12,8 18 10 39 21 WSW 48 0,0
18.09.2018 10:00:00 23,4 13,0 15 8 26 14 SSW 48 0,0
18.09.2018 09:00:00 20,4 12,9 11 6 16 9 S 60 0,0
18.09.2018 08:00:00 15,4 11,0 4 2 8 4 S 0 -
18.09.2018 07:00:00 16,3 10,8 4 2 13 7 SSW 0 0,0
18.09.2018 06:00:00 16,6 10,7 5 3 8 4 SSW 0 0,0
18.09.2018 05:00:00 16,9 10,0 4 2 11 6 S 0 0,0
18.09.2018 04:00:00 17,3 10,4 8 4 16 9 S 0 0,0
18.09.2018 03:00:00 17,4 9,8 8 4 18 10 S 0 0,0
18.09.2018 02:00:00 18,1 9,4 11 6 21 11 SSE 0 -
18.09.2018 01:00:00 18,1 9,4 15 8 21 11 SSE 0 0,0
18.09.2018 00:00:00 18,3 9,4 11 6 22 12 SSE 0 0,0
17.09.2018 23:00:00 19,1 9,8 15 8 24 13 SSE 0 0,0
17.09.2018 22:00:00 20,6 10,1 18 10 26 14 SSE 0 0,0
17.09.2018 21:00:00 20,6 9,2 18 10 22 12 SE 0 0,0
17.09.2018 20:00:00 23,5 9,1 11 6 15 8 SE 12 -
17.09.2018 19:00:00 28,6 7,8 11 6 24 13 S 60 0,0
17.09.2018 18:00:00 30,9 7,4 13 7 41 22 SSE 60 0,0
17.09.2018 17:00:00 30,5 7,0 15 8 29 16 SSW 60 0,0
17.09.2018 16:00:00 31,3 8,3 13 7 24 13 S 60 0,0
17.09.2018 15:00:00 29,7 7,6 8 4 22 12 SSE 60 0,0
17.09.2018 14:00:00 28,8 7,4 9 5 24 13 SW 60 -
17.09.2018 13:00:00 27,3 9,6 5 3 13 7 SSW 60 0,0
17.09.2018 12:00:00 23,9 12,2 4 2 8 4 NW 60 0,0
17.09.2018 11:00:00 21,6 11,6 2 1 5 3 NNE 60 0,0
17.09.2018 10:00:00 16,0 10,1 2 1 8 4 E 54 0,0
17.09.2018 09:00:00 10,6 8,4 2 1 4 2 N 60 0,0
17.09.2018 08:00:00 6,4 5,7 0 0 8 4 N 18 -
17.09.2018 07:00:00 6,0 5,1 8 4 9 5 S 0 0,0
17.09.2018 06:00:00 5,8 4,8 4 2 8 4 E 0 0,0
17.09.2018 05:00:00 6,1 4,7 4 2 5 3 SSE 0 0,0
17.09.2018 04:00:00 7,5 6,1 0 0 4 2 N 0 0,0
17.09.2018 03:00:00 7,8 5,6 2 1 8 4 SE 0 0,0
17.09.2018 02:00:00 9,0 6,8 4 2 5 3 SSE 0 -
17.09.2018 01:00:00 9,9 7,0 0 0 4 2 N 0 0,0
17.09.2018 00:00:00 11,5 7,4 4 2 8 4 SW 0 0,0
16.09.2018 23:00:00 12,9 7,3 2 1 8 4 S 0 0,0

tt = temperature
td = dewpoint
ff = wind speed
fx = gusts
dd = wind direction
sd = sunshine duration
rr = precipitation

Next stations